Time;durP1;ratioP1;P1;durP2;ratioP2;P2;SDS_P1;SDS_P2;PMS_P1;PMS_P2;Temp;Humidity;BMP_temperature;BMP_pressure;BME280_temperature;BME280_humidity;BME280_pressure;Samples;Min_cycle;Max_cycle;Signal;HPM_P1;HPM_P2
2021/01/30 00:01:20;;;;;;;7.32;2.33;;;23.90;87.80;;;;;;5012121;28;20088;-59
2021/01/30 00:03:48;;;;;;;5.45;2.70;;;23.90;89.60;;;;;;5012416;28;20034;-58
2021/01/30 00:06:15;;;;;;;3.25;1.70;;;23.90;88.10;;;;;;5011968;28;20026;-59
2021/01/30 00:08:43;;;;;;;5.68;2.35;;;23.90;88.50;;;;;;5011730;28;20037;-55
2021/01/30 00:11:13;;;;;;;5.50;2.25;;;24.00;88.60;;;;;;5011781;28;20037;-55
2021/01/30 00:13:42;;;;;;;8.63;2.65;;;24.00;87.70;;;;;;5011843;28;20041;-57
2021/01/30 00:16:13;;;;;;;5.22;2.05;;;24.00;89.10;;;;;;5011957;28;20018;-57
2021/01/30 00:18:40;;;;;;;4.30;1.90;;;24.10;87.90;;;;;;5011986;28;20048;-60
2021/01/30 00:21:09;;;;;;;3.90;1.75;;;24.10;86.90;;;;;;5011026;28;20103;-57
2021/01/30 00:23:37;;;;;;;2.97;1.80;;;24.10;87.00;;;;;;5010878;28;20431;-56
2021/01/30 00:26:04;;;;;;;4.88;2.13;;;24.10;87.50;;;;;;5011863;28;20117;-56
2021/01/30 00:28:32;;;;;;;4.90;2.80;;;24.10;86.80;;;;;;5011586;28;20026;-56
2021/01/30 00:30:59;;;;;;;5.88;2.20;;;24.20;87.40;;;;;;5009811;28;20556;-57
2021/01/30 00:33:26;;;;;;;5.03;2.38;;;24.10;86.70;;;;;;5011613;28;20049;-59
2021/01/30 00:35:54;;;;;;;5.68;2.47;;;24.20;86.90;;;;;;5011495;28;20034;-57
2021/01/30 00:38:21;;;;;;;6.88;3.17;;;24.20;86.80;;;;;;5011508;28;20033;-54
2021/01/30 00:40:49;;;;;;;5.20;2.53;;;24.10;88.00;;;;;;5011490;28;20448;-57
2021/01/30 00:43:16;;;;;;;5.55;3.05;;;24.10;86.80;;;;;;5011441;28;20026;-59
2021/01/30 00:45:43;;;;;;;6.15;2.95;;;24.20;88.50;;;;;;5010102;28;20030;-55
2021/01/30 00:48:11;;;;;;;3.97;1.70;;;24.20;88.20;;;;;;5011588;28;20563;-56
2021/01/30 00:50:38;;;;;;;3.08;2.03;;;24.20;86.60;;;;;;5010007;28;20018;-60
2021/01/30 00:53:06;;;;;;;5.22;2.40;;;24.20;87.70;;;;;;5015201;28;20049;-59
2021/01/30 00:55:33;;;;;;;3.95;1.95;;;24.20;87.80;;;;;;5015441;28;20076;-57
2021/01/30 00:58:00;;;;;;;5.15;2.95;;;24.20;86.90;;;;;;5014553;28;20377;-62
2021/01/30 01:00:28;;;;;;;3.25;2.08;;;24.20;87.60;;;;;;5015690;28;20450;-58
2021/01/30 01:02:56;;;;;;;4.70;2.53;;;24.20;87.30;;;;;;5015170;28;20030;-57
2021/01/30 01:06:00;;;;;;;6.70;3.22;;;24.20;87.70;;;;;;5016473;28;20064;-60
2021/01/30 01:08:27;;;;;;;7.20;3.30;;;24.20;88.30;;;;;;5015681;28;20416;-58
2021/01/30 01:10:56;;;;;;;8.98;3.28;;;24.30;89.30;;;;;;5012186;28;20022;-59
2021/01/30 01:13:23;;;;;;;7.30;2.67;;;24.30;90.00;;;;;;5015327;28;20033;-57
2021/01/30 01:15:51;;;;;;;3.35;1.85;;;24.30;88.20;;;;;;5015428;28;20030;-58
2021/01/30 01:18:18;;;;;;;7.60;3.38;;;24.20;86.90;;;;;;5015122;28;20036;-58
2021/01/30 01:20:46;;;;;;;3.95;2.63;;;24.30;87.70;;;;;;5014761;28;20026;-58
2021/01/30 01:23:14;;;;;;;4.30;2.90;;;24.30;87.80;;;;;;5015185;28;20022;-58
2021/01/30 01:25:41;;;;;;;4.90;2.50;;;24.30;88.10;;;;;;5015518;28;20030;-62
2021/01/30 01:28:12;;;;;;;5.35;2.55;;;24.30;88.00;;;;;;5015088;28;20034;-60
2021/01/30 01:30:39;;;;;;;5.43;2.10;;;24.30;87.70;;;;;;5015430;28;20149;-57
2021/01/30 01:33:06;;;;;;;2.78;1.85;;;24.30;86.70;;;;;;5013800;28;20471;-59
2021/01/30 01:35:34;;;;;;;3.88;2.05;;;24.30;86.80;;;;;;5014082;28;20447;-58
2021/01/30 01:38:03;;;;;;;5.78;2.70;;;24.30;87.50;;;;;;5015360;28;20025;-55
2021/01/30 01:40:37;;;;;;;7.38;3.30;;;24.40;87.60;;;;;;5015795;28;20022;-52
2021/01/30 01:43:20;;;;;;;3.90;1.80;;;24.40;87.30;;;;;;5015522;28;20450;-50
2021/01/30 01:46:11;;;;;;;5.20;2.28;;;24.40;86.80;;;;;;5014961;28;20033;-61
2021/01/30 01:49:12;;;;;;;4.53;2.33;;;24.40;86.50;;;;;;5014412;28;20022;-58
2021/01/30 01:51:49;;;;;;;3.37;1.97;;;24.50;87.10;;;;;;5014366;28;20105;-58
2021/01/30 01:54:24;;;;;;;4.20;2.35;;;24.50;86.30;;;;;;5014613;28;20037;-60
2021/01/30 01:56:56;;;;;;;4.72;2.10;;;24.60;86.60;;;;;;5014518;28;20032;-60
2021/01/30 01:59:25;;;;;;;4.18;2.30;;;24.50;85.90;;;;;;5014134;28;20084;-59
2021/01/30 02:01:54;;;;;;;4.10;2.13;;;24.60;85.90;;;;;;5014563;28;20025;-61
2021/01/30 02:04:24;;;;;;;3.47;2.22;;;24.60;85.80;;;;;;5012099;28;20036;-60
2021/01/30 02:06:53;;;;;;;5.53;2.70;;;24.70;85.70;;;;;;5013757;28;20415;-61
2021/01/30 02:09:23;;;;;;;4.65;2.95;;;24.70;85.60;;;;;;5014205;28;20037;-61
2021/01/30 02:12:25;;;;;;;4.20;2.13;;;24.70;85.50;;;;;;5014094;28;20026;-59
2021/01/30 02:14:55;;;;;;;6.38;2.53;;;24.70;86.20;;;;;;5002414;28;20042;-55
2021/01/30 02:17:28;;;;;;;3.63;2.13;;;24.70;86.00;;;;;;5013871;28;20057;-61
2021/01/30 02:20:05;;;;;;;3.05;2.33;;;24.70;85.50;;;;;;5014012;28;20030;-58
2021/01/30 02:22:58;;;;;;;3.65;2.33;;;24.70;85.80;;;;;;5013897;28;20569;-60
2021/01/30 02:25:47;;;;;;;3.83;2.38;;;24.70;85.90;;;;;;5013677;28;20069;-57
2021/01/30 02:28:23;;;;;;;4.68;2.33;;;24.70;86.80;;;;;;5013639;28;20467;-61
2021/01/30 02:31:21;;;;;;;2.72;2.22;;;24.70;85.60;;;;;;5013892;28;20468;-59
2021/01/30 02:34:11;;;;;;;5.30;2.80;;;24.70;85.60;;;;;;5013574;28;20030;-62
2021/01/30 02:36:48;;;;;;;4.13;2.10;;;24.80;86.60;;;;;;5013206;28;20516;-58
2021/01/30 02:39:39;;;;;;;5.07;2.55;;;24.80;85.60;;;;;;5013644;28;20101;-60
2021/01/30 02:42:21;;;;;;;4.80;2.45;;;24.90;85.40;;;;;;5013470;28;20160;-61
2021/01/30 02:45:07;;;;;;;7.95;2.53;;;24.90;85.50;;;;;;5013677;28;20032;-58
2021/01/30 02:47:43;;;;;;;5.13;2.42;;;24.90;85.80;;;;;;5013722;28;20388;-56
2021/01/30 02:50:21;;;;;;;4.18;2.55;;;24.90;85.80;;;;;;5013559;28;20361;-59
2021/01/30 02:52:52;;;;;;;5.97;2.55;;;24.90;85.30;;;;;;5013136;28;20107;-61
2021/01/30 02:55:21;;;;;;;2.90;2.05;;;24.90;85.20;;;;;;5013505;28;20242;-60
2021/01/30 02:57:50;;;;;;;3.33;1.95;;;25.00;85.00;;;;;;5013503;28;20353;-60
2021/01/30 03:00:23;;;;;;;6.50;2.35;;;25.00;85.40;;;;;;5013038;28;20045;-59
2021/01/30 03:02:51;;;;;;;3.85;2.60;;;25.10;84.80;;;;;;5013438;28;20029;-60
2021/01/30 03:05:20;;;;;;;5.80;2.70;;;25.00;85.40;;;;;;5013527;28;20021;-62
2021/01/30 03:08:14;;;;;;;3.40;2.08;;;25.10;85.00;;;;;;5013045;28;20025;-63
2021/01/30 03:11:02;;;;;;;5.10;2.92;;;25.10;85.90;;;;;;5013566;28;20026;-58
2021/01/30 03:13:58;;;;;;;4.68;2.95;;;25.20;84.50;;;;;;5011537;28;20526;-58
2021/01/30 03:16:30;;;;;;;5.22;2.65;;;25.20;85.20;;;;;;5012959;28;20045;-55
2021/01/30 03:19:08;;;;;;;5.13;2.20;;;25.30;85.00;;;;;;5002864;28;20036;-51
2021/01/30 03:21:37;;;;;;;5.43;2.72;;;25.40;85.30;;;;;;5006804;28;20142;-50
2021/01/30 03:24:06;;;;;;;7.72;3.13;;;25.40;85.50;;;;;;5008301;28;20085;-53
2021/01/30 03:26:42;;;;;;;7.63;3.40;;;25.50;86.50;;;;;;5009673;28;20099;-50
2021/01/30 03:29:17;;;;;;;7.57;3.20;;;25.50;86.60;;;;;;5010396;28;20026;-49
2021/01/30 03:31:44;;;;;;;12.50;4.00;;;25.50;86.80;;;;;;5011221;28;20432;-49
2021/01/30 03:34:14;;;;;;;10.57;4.45;;;25.60;87.20;;;;;;5010702;28;20034;-49
2021/01/30 03:36:41;;;;;;;15.35;4.45;;;25.70;87.30;;;;;;5005680;28;20109;-51
2021/01/30 03:39:16;;;;;;;10.50;3.95;;;25.80;86.90;;;;;;5009859;28;20033;-48
2021/01/30 03:41:44;;;;;;;6.20;4.32;;;25.90;87.00;;;;;;5008448;28;20484;-52
2021/01/30 03:44:16;;;;;;;6.50;4.05;;;25.90;87.00;;;;;;5010505;28;20419;-51
2021/01/30 03:46:43;;;;;;;8.05;3.70;;;26.00;87.00;;;;;;5007037;28;20029;-53
2021/01/30 03:49:11;;;;;;;10.82;3.80;;;26.00;86.70;;;;;;5008686;28;20029;-50
2021/01/30 03:51:38;;;;;;;10.18;3.90;;;26.10;86.10;;;;;;5007304;28;20049;-57
2021/01/30 03:54:06;;;;;;;7.85;2.88;;;26.20;85.10;;;;;;5010234;28;20491;-50
2021/01/30 03:56:33;;;;;;;12.95;4.20;;;26.30;84.60;;;;;;5007089;28;20111;-43
2021/01/30 03:59:00;;;;;;;16.92;10.18;;;26.30;85.10;;;;;;5009705;28;20026;-49
2021/01/30 04:01:34;;;;;;;9.95;5.68;;;26.20;86.30;;;;;;5010102;28;20026;-50
2021/01/30 04:04:02;;;;;;;14.98;9.52;;;26.20;85.90;;;;;;5010807;28;20030;-50
2021/01/30 04:06:29;;;;;;;15.82;12.02;;;26.20;84.90;;;;;;5006694;28;20029;-58
2021/01/30 04:08:56;;;;;;;7.43;6.25;;;26.30;85.90;;;;;;5009576;28;20461;-55
2021/01/30 04:11:31;;;;;;;9.40;8.38;;;26.40;83.80;;;;;;5010477;28;20028;-54
2021/01/30 04:14:00;;;;;;;9.65;3.58;;;26.50;84.50;;;;;;5009191;28;20452;-50
2021/01/30 04:16:28;;;;;;;10.60;6.45;;;26.50;83.80;;;;;;5006684;28;20030;-51
2021/01/30 04:18:55;;;;;;;7.68;6.57;;;26.50;84.30;;;;;;5009078;28;20507;-52
2021/01/30 04:21:23;;;;;;;8.75;6.00;;;26.60;84.00;;;;;;5010269;28;20104;-57
2021/01/30 04:23:51;;;;;;;6.72;5.53;;;26.80;83.40;;;;;;5010420;28;20046;-53
2021/01/30 04:26:19;;;;;;;8.52;4.50;;;26.90;82.70;;;;;;5006251;28;20044;-51
2021/01/30 04:28:52;;;;;;;5.95;4.47;;;27.00;83.50;;;;;;5009447;28;20117;-57
2021/01/30 04:31:20;;;;;;;9.93;6.28;;;27.10;82.90;;;;;;5008705;28;20112;-50
2021/01/30 04:33:49;;;;;;;9.93;5.35;;;27.10;81.70;;;;;;5009813;28;20388;-51
2021/01/30 04:36:18;;;;;;;9.55;4.13;;;27.20;81.50;;;;;;5006807;28;20034;-50
2021/01/30 04:38:45;;;;;;;6.13;4.78;;;27.10;82.90;;;;;;5009129;28;20026;-45
2021/01/30 04:41:24;;;;;;;14.43;3.00;;;27.10;82.30;;;;;;5009908;28;20040;-51
2021/01/30 04:44:19;;;;;;;4.75;3.42;;;27.20;80.30;;;;;;5010052;28;20052;-50
2021/01/30 04:46:59;;;;;;;8.07;5.18;;;27.40;79.30;;;;;;5006770;28;20026;-51
2021/01/30 04:49:54;;;;;;;11.73;4.63;;;27.40;80.60;;;;;;5007382;28;20038;-49
2021/01/30 04:52:37;;;;;;;7.32;2.05;;;27.30;80.70;;;;;;5009529;28;20143;-49
2021/01/30 04:55:09;;;;;;;10.60;1.75;;;27.30;78.90;;;;;;5006808;28;20041;-49
2021/01/30 04:58:08;;;;;;;6.68;1.83;;;27.40;76.00;;;;;;5006037;28;20034;-58
2021/01/30 05:00:48;;;;;;;13.52;2.60;;;27.60;76.20;;;;;;4998283;28;20049;-54
2021/01/30 05:03:36;;;;;;;7.22;1.83;;;27.80;78.50;;;;;;5009187;28;20101;-51
2021/01/30 05:06:46;;;;;;;5.43;2.08;;;27.70;75.40;;;;;;5003010;28;20042;-49
2021/01/30 05:09:39;;;;;;;1.80;1.25;;;27.80;77.30;;;;;;4982298;28;20100;-51
2021/01/30 05:12:16;;;;;;;9.73;2.15;;;27.70;77.30;;;;;;5004093;28;20049;-51
2021/01/30 05:15:01;;;;;;;6.43;2.47;;;27.80;76.90;;;;;;5006210;28;20038;-49
2021/01/30 05:17:50;;;;;;;6.70;2.28;;;27.90;76.00;;;;;;5011106;28;20026;-52
2021/01/30 05:20:19;;;;;;;10.43;2.92;;;28.10;75.40;;;;;;5010373;28;20034;-54
2021/01/30 05:22:48;;;;;;;4.72;2.40;;;28.30;74.60;;;;;;5011432;28;20026;-48
2021/01/30 05:25:22;;;;;;;8.15;2.15;;;28.30;73.10;;;;;;5011393;28;20381;-47
2021/01/30 05:27:49;;;;;;;10.73;3.10;;;28.30;74.30;;;;;;5011496;28;20038;-48
2021/01/30 05:30:35;;;;;;;10.43;3.67;;;28.30;75.40;;;;;;5010941;28;20105;-49
2021/01/30 05:33:18;;;;;;;15.45;6.00;;;28.40;76.20;;;;;;5009234;28;20030;-57
2021/01/30 05:35:54;;;;;;;18.02;4.95;;;28.40;77.10;;;;;;5010539;28;20461;-54
2021/01/30 05:38:31;;;;;;;14.40;3.95;;;28.40;76.20;;;;;;5011905;28;20030;-49
2021/01/30 05:41:12;;;;;;;15.07;3.60;;;28.50;76.50;;;;;;5013550;28;20038;-49
2021/01/30 05:44:04;;;;;;;8.40;2.95;;;28.40;77.70;;;;;;5014832;28;20376;-53
2021/01/30 05:46:32;;;;;;;20.65;3.85;;;28.40;77.80;;;;;;5014733;28;20034;-53
2021/01/30 05:49:05;;;;;;;20.83;3.70;;;28.50;78.10;;;;;;5014285;28;20025;-49
2021/01/30 05:51:48;;;;;;;13.52;4.03;;;28.50;78.60;;;;;;5014608;28;20052;-53
2021/01/30 05:54:15;;;;;;;17.98;4.15;;;28.40;79.00;;;;;;5014916;28;20037;-54
2021/01/30 05:56:45;;;;;;;22.17;3.45;;;28.40;79.00;;;;;;5014767;28;20088;-52
2021/01/30 05:59:20;;;;;;;22.35;4.63;;;28.40;79.60;;;;;;5013897;28;20034;-53
2021/01/30 06:01:48;;;;;;;21.58;4.53;;;28.50;80.10;;;;;;5013266;28;20056;-52
2021/01/30 06:04:25;;;;;;;21.52;4.22;;;28.50;80.30;;;;;;5011126;28;20617;-53
2021/01/30 06:06:55;;;;;;;25.20;4.25;;;28.40;80.70;;;;;;5015310;28;20030;-53
2021/01/30 06:09:35;;;;;;;18.42;3.55;;;28.30;80.30;;;;;;5013065;28;20040;-50
2021/01/30 06:12:18;;;;;;;17.00;4.00;;;28.30;81.50;;;;;;5014022;28;20048;-54
2021/01/30 06:14:46;;;;;;;19.98;5.07;;;28.20;81.20;;;;;;5014210;28;20045;-52
2021/01/30 06:17:25;;;;;;;20.05;4.13;;;28.20;80.80;;;;;;5015240;28;20065;-55
2021/01/30 06:20:12;;;;;;;14.43;3.15;;;28.20;80.10;;;;;;5025184;28;20480;-57
2021/01/30 06:22:40;;;;;;;14.35;5.70;;;28.00;80.10;;;;;;5013136;28;20080;-56
2021/01/30 06:25:27;;;;;;;13.13;4.38;;;27.90;80.00;;;;;;5013790;28;20174;-47
2021/01/30 06:28:12;;;;;;;14.90;3.67;;;27.90;80.00;;;;;;5015094;28;20281;-52
2021/01/30 06:30:45;;;;;;;13.82;3.75;;;28.00;80.20;;;;;;5020942;28;20029;-45
2021/01/30 06:33:34;;;;;;;9.77;3.22;;;27.90;80.90;;;;;;5033714;28;20211;-54
2021/01/30 06:36:24;;;;;;;10.23;2.75;;;27.90;80.50;;;;;;5017705;28;20037;-47
2021/01/30 06:39:11;;;;;;;15.45;3.25;;;27.80;81.50;;;;;;5014185;28;20380;-51
2021/01/30 06:41:41;;;;;;;9.43;3.10;;;27.80;79.00;;;;;;5015009;28;20068;-51
2021/01/30 06:44:21;;;;;;;7.90;2.70;;;27.90;79.70;;;;;;5011669;28;20094;-55
2021/01/30 06:47:13;;;;;;;12.60;2.70;;;27.90;80.10;;;;;;5022679;28;20128;-46
2021/01/30 06:49:50;;;;;;;7.43;2.80;;;27.90;79.20;;;;;;5003453;28;20132;-52
2021/01/30 06:52:33;;;;;;;16.55;3.28;;;27.80;80.20;;;;;;5014263;28;20396;-60
2021/01/30 06:55:06;;;;;;;14.20;2.97;;;27.80;79.20;;;;;;5011318;28;20107;-60
2021/01/30 06:57:49;;;;;;;9.80;3.17;;;27.90;80.00;;;;;;5012313;28;20209;-54
2021/01/30 07:00:21;;;;;;;12.60;3.15;;;27.90;82.20;;;;;;5013401;28;20026;-52
2021/01/30 07:02:52;;;;;;;10.30;2.95;;;27.90;81.60;;;;;;5013081;28;20025;-57
2021/01/30 07:05:54;;;;;;;27.88;4.40;;;27.90;80.30;;;;;;5012417;28;20033;-58
2021/01/30 07:08:41;;;;;;;11.13;2.40;;;28.00;81.60;;;;;;5009482;28;20117;-51
2021/01/30 07:11:17;;;;;;;15.23;3.45;;;27.90;79.10;;;;;;5012727;28;20029;-62
2021/01/30 07:14:10;;;;;;;18.92;3.75;;;27.80;80.30;;;;;;5013439;28;20025;-56
2021/01/30 07:16:55;;;;;;;12.95;3.53;;;27.80;80.90;;;;;;5013208;28;20040;-60
2021/01/30 07:19:34;;;;;;;12.25;3.40;;;27.60;81.80;;;;;;5013196;28;20026;-56
2021/01/30 07:22:27;;;;;;;12.68;3.22;;;27.60;81.70;;;;;;5012759;28;20034;-57
2021/01/30 07:25:07;;;;;;;17.02;3.58;;;27.50;81.70;;;;;;5012701;28;20048;-59
2021/01/30 07:27:44;;;;;;;11.10;3.78;;;27.50;81.70;;;;;;5013169;28;20030;-59
2021/01/30 07:30:37;;;;;;;12.77;3.67;;;27.40;82.00;;;;;;5013013;28;20170;-58
2021/01/30 07:33:11;;;;;;;13.98;3.17;;;27.40;82.30;;;;;;5012610;28;20030;-60
2021/01/30 07:35:57;;;;;;;12.35;3.15;;;27.30;82.60;;;;;;5012468;28;20040;-60
2021/01/30 07:38:36;;;;;;;10.73;3.22;;;27.30;82.80;;;;;;5012834;28;20480;-57
2021/01/30 07:41:48;;;;;;;12.32;3.53;;;27.30;82.70;;;;;;5012521;28;20022;-60
2021/01/30 07:44:41;;;;;;;10.13;3.78;;;27.20;82.90;;;;;;5012695;28;20029;-61
2021/01/30 07:47:28;;;;;;;13.25;3.97;;;27.10;82.90;;;;;;5012438;28;20028;-61
2021/01/30 07:50:02;;;;;;;8.82;2.83;;;27.10;83.00;;;;;;5012744;28;20117;-58
2021/01/30 07:52:56;;;;;;;9.00;3.58;;;27.00;83.40;;;;;;5012860;28;20026;-58
2021/01/30 07:55:24;;;;;;;9.55;3.40;;;27.00;83.50;;;;;;5012583;28;20034;-59
2021/01/30 07:58:03;;;;;;;6.93;3.30;;;26.90;83.60;;;;;;5012497;28;20437;-61
2021/01/30 08:00:48;;;;;;;9.98;3.40;;;26.90;83.70;;;;;;5012345;28;20033;-60
2021/01/30 08:03:50;;;;;;;12.57;3.42;;;26.80;83.80;;;;;;5012378;28;20026;-61
2021/01/30 08:06:31;;;;;;;9.48;3.40;;;26.80;84.10;;;;;;5012848;28;20032;-59
2021/01/30 08:09:25;;;;;;;10.03;2.97;;;26.70;84.10;;;;;;5012399;28;20029;-60
2021/01/30 08:12:10;;;;;;;9.38;3.15;;;26.70;84.50;;;;;;5007918;28;20754;-63
2021/01/30 08:14:56;;;;;;;10.57;3.20;;;26.60;84.70;;;;;;5007009;28;20488;-59
2021/01/30 08:17:51;;;;;;;7.97;3.10;;;26.50;85.40;;;;;;5008397;28;20026;-61
2021/01/30 08:20:35;;;;;;;16.80;3.80;;;26.50;85.60;;;;;;5008299;28;20131;-58
2021/01/30 08:23:26;;;;;;;10.30;3.60;;;26.50;85.40;;;;;;5009596;28;20104;-59
2021/01/30 08:25:53;;;;;;;9.82;3.47;;;26.50;85.50;;;;;;5007059;28;20053;-61
2021/01/30 08:28:28;;;;;;;10.43;3.35;;;26.50;85.80;;;;;;5025394;28;20172;-60
2021/01/30 08:30:56;;;;;;;11.85;2.92;;;26.50;85.50;;;;;;5010589;28;20084;-60
2021/01/30 08:33:23;;;;;;;10.30;2.72;;;26.50;85.70;;;;;;5009937;28;20018;-60
2021/01/30 08:35:56;;;;;;;12.13;3.80;;;26.40;85.70;;;;;;5007180;28;20038;-60
2021/01/30 08:38:24;;;;;;;10.07;3.88;;;26.40;85.70;;;;;;5010339;28;20026;-59
2021/01/30 08:40:54;;;;;;;6.25;2.70;;;26.40;85.80;;;;;;5010443;28;20033;-60
2021/01/30 08:43:53;;;;;;;11.50;4.40;;;26.40;85.80;;;;;;5008015;28;20033;-59
2021/01/30 08:46:27;;;;;;;8.23;2.80;;;26.40;86.10;;;;;;5005349;28;20034;-58
2021/01/30 08:49:15;;;;;;;8.93;3.35;;;26.30;86.10;;;;;;5007344;28;20037;-59
2021/01/30 08:51:45;;;;;;;8.65;3.22;;;26.30;86.20;;;;;;5004275;28;20067;-55
2021/01/30 08:54:32;;;;;;;8.13;2.85;;;26.30;86.30;;;;;;5005997;28;20087;-57
2021/01/30 08:57:01;;;;;;;7.20;2.72;;;26.30;86.40;;;;;;5008578;28;20450;-61
2021/01/30 08:59:49;;;;;;;5.18;2.75;;;26.30;86.40;;;;;;5007440;28;20018;-55
2021/01/30 09:02:29;;;;;;;9.23;2.97;;;26.20;86.50;;;;;;5007022;28;20065;-61
2021/01/30 09:04:59;;;;;;;10.82;3.28;;;26.20;86.50;;;;;;5004596;28;20038;-61
2021/01/30 09:08:11;;;;;;;10.25;2.78;;;26.20;86.50;;;;;;5005391;28;20034;-64
2021/01/30 09:10:40;;;;;;;8.65;3.35;;;26.20;86.40;;;;;;4985204;28;20567;-61
2021/01/30 09:13:12;;;;;;;9.48;3.03;;;26.20;86.40;;;;;;4986419;28;20034;-58
2021/01/30 09:15:42;;;;;;;10.75;4.15;;;26.20;86.60;;;;;;4999725;28;20053;-62
2021/01/30 09:18:31;;;;;;;8.40;2.83;;;26.10;86.60;;;;;;5013406;28;20034;-60
2021/01/30 09:21:08;;;;;;;10.07;3.70;;;26.10;86.80;;;;;;5013162;28;20103;-61
2021/01/30 09:23:48;;;;;;;9.95;2.97;;;26.00;86.90;;;;;;5013032;28;20045;-61
2021/01/30 09:26:28;;;;;;;6.57;3.13;;;26.00;86.90;;;;;;5010682;28;20041;-59
2021/01/30 09:29:03;;;;;;;11.02;3.70;;;26.00;86.90;;;;;;5013749;28;20038;-59
2021/01/30 09:31:31;;;;;;;9.82;3.55;;;26.00;86.90;;;;;;5013900;28;20072;-59
2021/01/30 09:34:27;;;;;;;5.78;3.30;;;26.00;87.00;;;;;;5013175;28;20022;-61
2021/01/30 09:36:55;;;;;;;6.78;3.03;;;26.00;87.20;;;;;;5011627;28;20061;-62
2021/01/30 09:39:33;;;;;;;5.68;2.70;;;25.90;87.10;;;;;;5013428;28;20062;-62
2021/01/30 09:42:11;;;;;;;6.57;3.28;;;25.90;87.30;;;;;;5013448;28;20034;-61
2021/01/30 09:44:38;;;;;;;5.00;2.72;;;25.80;87.60;;;;;;5009294;28;20080;-60
2021/01/30 09:47:18;;;;;;;5.68;2.53;;;25.80;87.60;;;;;;5013931;28;20026;-58
2021/01/30 09:50:08;;;;;;;6.13;2.80;;;25.80;87.80;;;;;;4996874;28;20037;-60
2021/01/30 09:52:56;;;;;;;10.77;3.00;;;25.80;88.10;;;;;;5013375;28;20030;-55
2021/01/30 09:55:25;;;;;;;7.15;3.10;;;25.80;88.00;;;;;;5009164;28;20048;-55
2021/01/30 09:58:12;;;;;;;9.68;3.45;;;25.80;87.80;;;;;;5014043;28;20081;-60
2021/01/30 10:00:45;;;;;;;8.77;3.38;;;25.80;87.90;;;;;;5012700;28;20053;-53
2021/01/30 10:03:26;;;;;;;9.48;3.60;;;25.80;88.00;;;;;;5012643;28;20037;-61
2021/01/30 10:05:54;;;;;;;7.20;3.30;;;25.70;87.80;;;;;;5008408;28;20449;-59
2021/01/30 10:08:24;;;;;;;9.25;4.05;;;25.70;87.90;;;;;;5010760;28;20556;-61
2021/01/30 10:11:02;;;;;;;8.60;3.40;;;25.70;87.90;;;;;;5012793;28;20053;-59
2021/01/30 10:13:30;;;;;;;8.07;3.45;;;25.70;88.00;;;;;;5027427;28;20040;-61
2021/01/30 10:16:02;;;;;;;10.30;3.33;;;25.70;88.20;;;;;;5009574;28;20128;-63
2021/01/30 10:18:33;;;;;;;11.38;3.67;;;25.70;88.00;;;;;;5013141;28;20034;-54
2021/01/30 10:21:03;;;;;;;9.23;3.63;;;25.70;88.00;;;;;;5012276;28;20033;-60
2021/01/30 10:23:48;;;;;;;7.35;3.45;;;25.70;88.10;;;;;;5011532;28;20267;-58
2021/01/30 10:26:22;;;;;;;9.35;3.33;;;25.70;88.10;;;;;;5009382;28;20177;-60
2021/01/30 10:28:56;;;;;;;6.55;3.22;;;25.70;88.10;;;;;;5010819;28;20026;-61
2021/01/30 10:31:39;;;;;;;8.95;3.17;;;25.70;88.20;;;;;;5012522;28;20553;-56
2021/01/30 10:34:20;;;;;;;9.70;3.30;;;25.70;88.10;;;;;;5011527;28;20118;-52
2021/01/30 10:37:12;;;;;;;8.45;3.28;;;25.70;88.10;;;;;;5012803;28;20037;-53
2021/01/30 10:39:48;;;;;;;7.40;3.10;;;25.70;88.00;;;;;;5012604;28;20746;-54
2021/01/30 10:42:22;;;;;;;7.65;3.40;;;25.60;88.00;;;;;;5009476;28;20040;-55
2021/01/30 10:45:03;;;;;;;9.15;3.05;;;25.60;88.10;;;;;;5008232;28;20048;-52
2021/01/30 10:47:31;;;;;;;6.47;3.10;;;25.60;88.20;;;;;;5012392;28;20052;-54
2021/01/30 10:50:19;;;;;;;5.95;3.15;;;25.60;88.10;;;;;;5012325;28;20030;-60
2021/01/30 10:52:47;;;;;;;6.78;2.72;;;25.60;88.30;;;;;;5011156;28;20036;-54
2021/01/30 10:55:24;;;;;;;7.57;2.90;;;25.60;88.40;;;;;;5008584;28;20034;-59
2021/01/30 10:57:53;;;;;;;8.32;3.05;;;25.60;88.40;;;;;;5009862;28;20029;-52
2021/01/30 11:00:30;;;;;;;7.13;3.60;;;25.50;88.40;;;;;;5012005;28;20113;-60
2021/01/30 11:02:57;;;;;;;6.35;2.95;;;25.50;88.50;;;;;;5010767;28;20105;-59
2021/01/30 11:05:28;;;;;;;7.85;3.22;;;25.50;88.50;;;;;;5008265;28;20018;-59
2021/01/30 11:08:04;;;;;;;7.18;3.45;;;25.50;88.60;;;;;;5026483;28;20554;-59
2021/01/30 11:10:37;;;;;;;5.70;2.90;;;25.50;88.60;;;;;;5011769;28;20048;-61
2021/01/30 11:13:21;;;;;;;5.78;3.00;;;25.50;88.80;;;;;;5010320;28;20112;-59
2021/01/30 11:15:50;;;;;;;8.57;3.13;;;25.40;88.70;;;;;;5008147;28;20104;-62
2021/01/30 11:18:29;;;;;;;4.65;2.70;;;25.40;88.50;;;;;;5010491;28;20026;-58
2021/01/30 11:20:59;;;;;;;4.00;2.70;;;25.40;88.70;;;;;;5012813;28;20021;-60
2021/01/30 11:23:46;;;;;;;10.05;3.08;;;25.40;88.80;;;;;;5012840;28;20049;-60
2021/01/30 11:26:24;;;;;;;6.93;3.05;;;25.40;88.80;;;;;;5012867;28;20034;-57
2021/01/30 11:28:54;;;;;;;6.85;3.00;;;25.40;88.90;;;;;;5013274;28;20026;-59
2021/01/30 11:31:22;;;;;;;7.33;2.97;;;25.30;89.00;;;;;;5013286;28;20387;-60
2021/01/30 11:33:56;;;;;;;5.35;2.53;;;25.30;89.10;;;;;;5027770;28;20113;-57
2021/01/30 11:36:24;;;;;;;6.20;2.63;;;25.20;89.10;;;;;;5012488;28;20105;-58
2021/01/30 11:38:58;;;;;;;5.70;3.28;;;25.20;89.20;;;;;;5012726;28;20101;-57
2021/01/30 11:41:27;;;;;;;6.55;2.58;;;25.20;89.20;;;;;;5013222;28;20034;-59
2021/01/30 11:43:54;;;;;;;7.95;2.80;;;25.20;89.30;;;;;;5013139;28;20022;-56
2021/01/30 11:46:22;;;;;;;4.18;2.63;;;25.20;89.40;;;;;;5012755;28;20369;-61
2021/01/30 11:48:49;;;;;;;6.45;2.78;;;25.20;89.50;;;;;;5012412;28;20018;-60
2021/01/30 11:51:28;;;;;;;6.15;2.53;;;25.10;89.50;;;;;;5012567;28;20397;-59
2021/01/30 11:53:56;;;;;;;5.43;2.80;;;25.10;89.50;;;;;;5012822;28;20041;-60
2021/01/30 11:56:24;;;;;;;4.70;2.30;;;25.10;89.60;;;;;;5012683;28;20072;-60
2021/01/30 11:58:52;;;;;;;7.68;2.67;;;25.10;89.50;;;;;;5012890;28;20380;-59
2021/01/30 12:01:20;;;;;;;5.20;2.50;;;25.00;89.60;;;;;;5012799;28;20079;-60
2021/01/30 12:03:47;;;;;;;5.45;2.75;;;25.00;89.70;;;;;;5012677;28;20365;-59
2021/01/30 12:06:15;;;;;;;4.07;2.35;;;25.10;89.80;;;;;;5012706;28;20079;-59
2021/01/30 12:08:43;;;;;;;5.30;3.05;;;25.00;89.60;;;;;;5012623;28;20362;-61
2021/01/30 12:11:13;;;;;;;6.10;2.75;;;25.00;89.70;;;;;;5012313;28;20488;-58
2021/01/30 12:13:41;;;;;;;3.72;2.35;;;25.00;89.70;;;;;;5012487;28;20026;-59
2021/01/30 12:16:08;;;;;;;6.80;2.33;;;25.00;89.80;;;;;;5012500;28;20124;-60
2021/01/30 12:18:36;;;;;;;9.77;2.90;;;24.90;89.70;;;;;;5012626;28;20492;-58
2021/01/30 12:21:04;;;;;;;9.35;3.00;;;24.90;89.80;;;;;;5012556;28;20036;-57
2021/01/30 12:23:31;;;;;;;5.68;2.38;;;24.90;89.80;;;;;;5012316;28;20025;-57
2021/01/30 12:26:00;;;;;;;6.47;2.95;;;24.90;89.80;;;;;;5012571;28;20049;-59
2021/01/30 12:28:35;;;;;;;3.95;2.60;;;24.90;89.90;;;;;;5012252;28;20080;-57
2021/01/30 12:31:04;;;;;;;3.90;2.40;;;24.90;89.80;;;;;;5012339;28;20049;-59
2021/01/30 12:33:31;;;;;;;5.75;2.60;;;24.90;89.80;;;;;;5012230;28;20021;-54
2021/01/30 12:35:59;;;;;;;5.60;2.80;;;24.90;89.80;;;;;;5012503;28;20507;-58
2021/01/30 12:38:32;;;;;;;3.47;2.35;;;24.90;89.80;;;;;;5012238;28;20080;-59
2021/01/30 12:41:00;;;;;;;4.95;2.17;;;24.90;89.80;;;;;;5011911;28;20060;-59
2021/01/30 12:43:28;;;;;;;3.97;2.40;;;24.80;89.80;;;;;;5010753;28;20069;-58
2021/01/30 12:45:56;;;;;;;5.85;2.92;;;24.80;89.80;;;;;;5012412;28;20054;-61
2021/01/30 12:48:23;;;;;;;5.07;2.25;;;24.90;89.80;;;;;;5011735;28;20515;-60
2021/01/30 12:50:51;;;;;;;5.25;2.53;;;24.80;89.80;;;;;;5012307;28;20435;-59
2021/01/30 12:53:19;;;;;;;6.15;2.47;;;24.80;89.80;;;;;;5011973;28;20029;-59
2021/01/30 12:55:47;;;;;;;5.13;2.30;;;24.80;89.80;;;;;;5011992;28;20041;-58
2021/01/30 12:58:21;;;;;;;3.85;2.58;;;24.80;89.90;;;;;;5012186;28;20026;-57
2021/01/30 13:00:50;;;;;;;3.70;2.40;;;24.80;89.80;;;;;;5002699;28;20034;-60
2021/01/30 13:03:18;;;;;;;6.20;2.60;;;24.80;89.90;;;;;;5008566;28;20030;-58
2021/01/30 13:05:46;;;;;;;4.10;2.30;;;24.80;89.90;;;;;;5005763;28;20161;-59
2021/01/30 13:08:16;;;;;;;4.60;2.55;;;24.80;90.00;;;;;;5008887;28;20026;-57
2021/01/30 13:10:43;;;;;;;4.68;2.53;;;24.80;90.20;;;;;;5009746;28;20026;-53
2021/01/30 13:13:11;;;;;;;5.25;2.80;;;24.70;89.80;;;;;;5010218;28;20030;-54
2021/01/30 13:15:38;;;;;;;5.65;2.40;;;24.70;89.90;;;;;;5004034;28;20478;-57
2021/01/30 13:18:07;;;;;;;3.60;2.58;;;24.70;89.90;;;;;;5008668;28;20030;-59
2021/01/30 13:20:34;;;;;;;6.30;2.60;;;24.70;90.00;;;;;;5009488;28;20365;-56
2021/01/30 13:23:02;;;;;;;4.38;2.40;;;24.70;90.00;;;;;;5009926;28;20156;-56
2021/01/30 13:25:29;;;;;;;3.05;2.10;;;24.70;90.00;;;;;;5006396;28;20121;-58